Time;durP1;ratioP1;P1;durP2;ratioP2;P2;SDS_P1;SDS_P2;PMS_P1;PMS_P2;Temp;Humidity;BMP_temperature;BMP_pressure;BME280_temperature;BME280_humidity;BME280_pressure;Samples;Min_cycle;Max_cycle;Signal;HPM_P1;HPM_P2
2024/01/24 00:01:48;;;;;;;12.30;8.47;;;;;;;;;;5006373;28;20473;-76
2024/01/24 00:04:15;;;;;;;12.63;9.80;;;;;;;;;;5007037;28;20464;-76
2024/01/24 00:06:42;;;;;;;13.27;9.43;;;;;;;;;;5010642;28;20458;-76
2024/01/24 00:09:10;;;;;;;17.20;11.00;;;;;;;;;;5005697;28;20474;-81
2024/01/24 00:11:36;;;;;;;11.10;8.20;;;;;;;;;;5013104;28;20840;-78
2024/01/24 00:14:06;;;;;;;13.57;9.97;;;;;;;;;;5006543;28;20490;-77
2024/01/24 00:16:34;;;;;;;16.00;10.03;;;;;;;;;;5008198;28;20877;-77
2024/01/24 00:19:02;;;;;;;20.40;10.90;;;;;;;;;;5007534;28;20488;-77
2024/01/24 00:21:28;;;;;;;13.73;9.53;;;;;;;;;;5005357;28;20496;-77
2024/01/24 00:23:55;;;;;;;15.10;10.47;;;;;;;;;;5008214;28;21003;-77
2024/01/24 00:26:24;;;;;;;16.40;10.30;;;;;;;;;;5006380;28;20552;-87
2024/01/24 00:28:49;;;;;;;14.40;10.83;;;;;;;;;;5006347;28;20480;-79
2024/01/24 00:31:17;;;;;;;14.10;10.17;;;;;;;;;;5006265;28;20549;-77
2024/01/24 00:33:45;;;;;;;15.70;11.40;;;;;;;;;;5006485;28;20306;-77
2024/01/24 00:36:12;;;;;;;18.37;11.40;;;;;;;;;;5008736;28;20553;-76
2024/01/24 00:38:39;;;;;;;12.23;10.20;;;;;;;;;;5011867;28;20492;-85
2024/01/24 00:41:05;;;;;;;14.17;11.10;;;;;;;;;;5007120;28;20486;-76
2024/01/24 00:43:33;;;;;;;21.93;11.90;;;;;;;;;;5010932;28;20472;-77
2024/01/24 00:45:59;;;;;;;18.90;11.60;;;;;;;;;;5007822;28;20442;-77
2024/01/24 00:48:25;;;;;;;16.27;12.83;;;;;;;;;;5005480;28;20470;-77
2024/01/24 00:50:53;;;;;;;16.53;10.40;;;;;;;;;;5012547;28;20501;-77
2024/01/24 00:53:20;;;;;;;18.93;12.10;;;;;;;;;;5006752;28;20480;-76
2024/01/24 00:55:47;;;;;;;18.30;10.77;;;;;;;;;;5012668;28;20492;-77
2024/01/24 00:58:13;;;;;;;13.30;10.80;;;;;;;;;;5006486;28;20470;-76
2024/01/24 01:00:41;;;;;;;18.37;11.37;;;;;;;;;;5007771;28;20501;-77
2024/01/24 01:03:09;;;;;;;18.33;10.20;;;;;;;;;;5007048;28;20484;-77
2024/01/24 01:05:37;;;;;;;14.37;9.90;;;;;;;;;;5010637;28;20521;-77
2024/01/24 01:08:05;;;;;;;15.90;9.47;;;;;;;;;;5010033;28;20472;-76
2024/01/24 01:10:31;;;;;;;14.93;10.17;;;;;;;;;;5006488;28;20469;-77
2024/01/24 01:12:59;;;;;;;15.90;9.60;;;;;;;;;;5004591;28;20481;-77
2024/01/24 01:15:26;;;;;;;14.40;9.00;;;;;;;;;;5006288;28;21112;-76
2024/01/24 01:17:54;;;;;;;13.50;9.20;;;;;;;;;;5002192;28;20480;-76
2024/01/24 01:20:21;;;;;;;16.87;9.90;;;;;;;;;;5008812;28;20441;-76
2024/01/24 01:22:47;;;;;;;13.03;8.10;;;;;;;;;;5011171;28;20442;-76
2024/01/24 01:25:14;;;;;;;13.73;7.60;;;;;;;;;;5009754;28;20533;-76
2024/01/24 01:27:40;;;;;;;13.83;8.33;;;;;;;;;;5005370;28;20529;-77
2024/01/24 01:30:08;;;;;;;15.90;8.00;;;;;;;;;;5005895;28;20439;-76
2024/01/24 01:32:35;;;;;;;11.97;7.23;;;;;;;;;;5006034;28;20446;-79
2024/01/24 01:35:07;;;;;;;11.67;8.30;;;;;;;;;;5006328;28;20482;-77
2024/01/24 01:37:33;;;;;;;10.87;6.90;;;;;;;;;;5005397;28;20525;-77
2024/01/24 01:40:00;;;;;;;8.10;6.30;;;;;;;;;;5003812;28;20533;-77
2024/01/24 01:42:26;;;;;;;13.67;6.60;;;;;;;;;;5008895;28;21003;-77
2024/01/24 01:44:53;;;;;;;7.70;6.63;;;;;;;;;;5002285;28;20465;-76
2024/01/24 01:47:20;;;;;;;13.03;6.67;;;;;;;;;;5004204;28;20539;-78
2024/01/24 01:49:46;;;;;;;10.10;6.67;;;;;;;;;;5007225;28;21085;-76
2024/01/24 01:52:14;;;;;;;9.13;5.77;;;;;;;;;;5011722;28;20462;-77
2024/01/24 01:54:42;;;;;;;8.70;5.97;;;;;;;;;;5008352;28;20573;-78
2024/01/24 01:57:11;;;;;;;9.00;5.23;;;;;;;;;;5003530;28;20831;-77
2024/01/24 01:59:37;;;;;;;7.47;5.10;;;;;;;;;;5002603;28;20512;-77
2024/01/24 02:02:04;;;;;;;6.40;4.83;;;;;;;;;;5003690;28;20536;-76
2024/01/24 02:04:31;;;;;;;6.70;4.50;;;;;;;;;;5007022;28;20463;-76
2024/01/24 02:06:57;;;;;;;5.53;4.47;;;;;;;;;;5007655;28;20496;-77
2024/01/24 02:09:25;;;;;;;5.30;4.00;;;;;;;;;;5005357;28;20471;-76
2024/01/24 02:11:52;;;;;;;5.23;3.57;;;;;;;;;;5007313;28;20532;-77
2024/01/24 02:14:18;;;;;;;3.53;3.23;;;;;;;;;;5006431;28;20476;-77
2024/01/24 02:16:45;;;;;;;5.33;3.83;;;;;;;;;;5009266;28;20476;-76
2024/01/24 02:19:12;;;;;;;3.57;2.97;;;;;;;;;;5010594;28;20484;-76
2024/01/24 02:21:39;;;;;;;3.40;3.10;;;;;;;;;;5008176;28;20548;-78
2024/01/24 02:24:08;;;;;;;2.87;2.60;;;;;;;;;;5005168;28;20476;-78
2024/01/24 02:26:35;;;;;;;2.63;2.43;;;;;;;;;;5009931;28;20517;-77
2024/01/24 02:29:01;;;;;;;2.00;1.90;;;;;;;;;;5006221;28;20469;-77
2024/01/24 02:31:28;;;;;;;2.80;2.00;;;;;;;;;;5008299;28;20468;-76
2024/01/24 02:33:54;;;;;;;5.87;2.00;;;;;;;;;;5004596;28;20468;-78
2024/01/24 02:36:21;;;;;;;1.80;1.60;;;;;;;;;;5005472;28;20456;-77
2024/01/24 02:38:47;;;;;;;1.60;1.50;;;;;;;;;;5006185;28;20478;-77
2024/01/24 02:41:17;;;;;;;1.63;1.37;;;;;;;;;;5008025;28;20906;-76
2024/01/24 02:43:43;;;;;;;1.13;1.03;;;;;;;;;;5006041;28;20474;-77
2024/01/24 02:46:10;;;;;;;2.10;1.10;;;;;;;;;;5004567;28;20522;-77
2024/01/24 02:48:36;;;;;;;1.40;1.30;;;;;;;;;;5006504;28;20469;-77
2024/01/24 02:51:03;;;;;;;1.60;1.50;;;;;;;;;;5005141;28;20476;-77
2024/01/24 02:53:29;;;;;;;1.50;1.20;;;;;;;;;;5005677;28;20469;-77
2024/01/24 02:55:56;;;;;;;2.37;1.10;;;;;;;;;;5008265;28;20485;-76
2024/01/24 02:58:24;;;;;;;1.33;1.27;;;;;;;;;;5006622;28;20468;-77
2024/01/24 03:00:51;;;;;;;0.80;0.80;;;;;;;;;;5005116;28;20473;-77
2024/01/24 03:03:17;;;;;;;2.33;1.07;;;;;;;;;;5003767;28;20485;-77
2024/01/24 03:05:44;;;;;;;0.90;0.90;;;;;;;;;;5001169;28;20440;-76
2024/01/24 03:08:11;;;;;;;1.20;1.10;;;;;;;;;;5003933;28;20478;-77
2024/01/24 03:10:38;;;;;;;0.70;0.70;;;;;;;;;;5003475;28;20568;-77
2024/01/24 03:13:04;;;;;;;0.90;0.90;;;;;;;;;;5006182;28;20465;-79
2024/01/24 03:15:32;;;;;;;1.40;0.93;;;;;;;;;;5004644;28;20486;-79
2024/01/24 03:17:59;;;;;;;3.80;1.00;;;;;;;;;;5004006;28;20469;-76
2024/01/24 03:20:26;;;;;;;1.40;1.23;;;;;;;;;;5003269;28;20439;-79
2024/01/24 03:22:53;;;;;;;1.00;0.77;;;;;;;;;;5000423;28;20549;-77
2024/01/24 03:25:19;;;;;;;1.57;0.93;;;;;;;;;;5000456;28;20437;-76
2024/01/24 03:27:46;;;;;;;4.10;0.80;;;;;;;;;;5000895;28;20438;-78
2024/01/24 03:30:13;;;;;;;1.10;0.90;;;;;;;;;;5001549;28;20441;-78
2024/01/24 03:32:42;;;;;;;4.73;1.20;;;;;;;;;;5002870;28;20516;-77
2024/01/24 03:35:10;;;;;;;1.30;1.20;;;;;;;;;;5002530;28;20584;-78
2024/01/24 03:37:36;;;;;;;2.53;1.57;;;;;;;;;;5002176;28;20447;-83
2024/01/24 03:40:03;;;;;;;1.63;1.30;;;;;;;;;;5002943;28;20455;-80
2024/01/24 03:42:32;;;;;;;4.03;1.30;;;;;;;;;;5004964;28;20978;-76
2024/01/24 03:44:58;;;;;;;4.10;1.50;;;;;;;;;;5006046;28;20438;-77
2024/01/24 03:47:25;;;;;;;4.13;1.87;;;;;;;;;;5006207;28;20456;-77
2024/01/24 03:49:53;;;;;;;7.33;1.47;;;;;;;;;;5004698;28;20531;-77
2024/01/24 03:52:19;;;;;;;6.30;1.83;;;;;;;;;;5003259;28;20475;-79
2024/01/24 03:54:45;;;;;;;4.57;1.57;;;;;;;;;;5004024;28;21068;-77
2024/01/24 03:57:12;;;;;;;7.50;1.47;;;;;;;;;;5004350;28;20441;-82
2024/01/24 03:59:38;;;;;;;5.57;2.03;;;;;;;;;;5003266;28;20470;-77
2024/01/24 04:02:06;;;;;;;5.73;1.63;;;;;;;;;;5004596;28;20516;-77
2024/01/24 04:04:33;;;;;;;3.83;1.43;;;;;;;;;;5006395;28;20586;-77
2024/01/24 04:07:01;;;;;;;9.77;2.30;;;;;;;;;;5003916;28;20471;-77
2024/01/24 04:09:28;;;;;;;16.57;2.83;;;;;;;;;;5003459;28;20501;-78
2024/01/24 04:11:55;;;;;;;8.33;1.90;;;;;;;;;;5004514;28;20477;-78
2024/01/24 04:14:22;;;;;;;8.00;2.40;;;;;;;;;;5004644;28;20478;-77
2024/01/24 04:16:48;;;;;;;8.33;2.50;;;;;;;;;;5002747;28;20558;-79
2024/01/24 04:19:15;;;;;;;14.07;2.87;;;;;;;;;;5003032;28;20477;-77
2024/01/24 04:21:43;;;;;;;8.80;2.40;;;;;;;;;;5006113;28;20470;-77
2024/01/24 04:24:13;;;;;;;8.73;2.30;;;;;;;;;;5003558;28;20470;-77
2024/01/24 04:26:40;;;;;;;13.30;3.63;;;;;;;;;;5004596;28;20450;-77
2024/01/24 04:29:07;;;;;;;8.53;2.57;;;;;;;;;;5003355;28;21034;-77
2024/01/24 04:31:34;;;;;;;7.80;2.30;;;;;;;;;;5005447;28;20457;-77
2024/01/24 04:34:00;;;;;;;13.73;3.80;;;;;;;;;;5003275;28;20564;-78
2024/01/24 04:36:27;;;;;;;7.83;2.40;;;;;;;;;;5005008;28;20576;-78
2024/01/24 04:38:53;;;;;;;12.87;3.47;;;;;;;;;;5002710;28;20512;-77
2024/01/24 04:41:21;;;;;;;9.90;2.23;;;;;;;;;;5002691;28;20469;-77
2024/01/24 04:43:48;;;;;;;10.00;3.93;;;;;;;;;;5003616;28;20496;-77
2024/01/24 04:46:15;;;;;;;10.37;3.43;;;;;;;;;;5019409;28;20450;-79
2024/01/24 04:48:42;;;;;;;12.70;3.43;;;;;;;;;;5005236;28;20548;-77
2024/01/24 04:51:09;;;;;;;17.50;3.40;;;;;;;;;;5006248;28;20472;-77
2024/01/24 04:53:36;;;;;;;17.03;3.83;;;;;;;;;;5003139;28;20854;-77
2024/01/24 04:56:02;;;;;;;17.70;4.03;;;;;;;;;;5001717;28;20489;-78
2024/01/24 04:58:30;;;;;;;9.83;3.40;;;;;;;;;;5003877;28;21789;-77
2024/01/24 05:00:56;;;;;;;14.40;4.37;;;;;;;;;;5003757;28;20566;-78
2024/01/24 05:03:24;;;;;;;24.63;4.37;;;;;;;;;;5002499;28;20474;-78
2024/01/24 05:05:50;;;;;;;13.60;3.40;;;;;;;;;;5004643;28;20981;-77
2024/01/24 05:08:17;;;;;;;18.57;3.83;;;;;;;;;;5002820;28;20846;-78
2024/01/24 05:10:43;;;;;;;15.60;3.17;;;;;;;;;;5005111;28;20458;-77
2024/01/24 05:13:10;;;;;;;19.97;3.60;;;;;;;;;;5002781;28;20466;-79
2024/01/24 05:15:40;;;;;;;11.50;3.23;;;;;;;;;;5000521;28;20500;-77
2024/01/24 05:18:07;;;;;;;11.70;3.90;;;;;;;;;;5003706;28;20554;-77
2024/01/24 05:20:35;;;;;;;17.13;4.20;;;;;;;;;;5002548;28;20462;-77
2024/01/24 05:23:05;;;;;;;13.50;3.40;;;;;;;;;;5003828;28;20479;-77
2024/01/24 05:25:31;;;;;;;17.53;4.43;;;;;;;;;;5001907;28;20463;-78
2024/01/24 05:27:58;;;;;;;12.57;4.67;;;;;;;;;;5004875;28;20461;-77
2024/01/24 05:30:26;;;;;;;18.30;4.80;;;;;;;;;;5004831;28;20445;-78
2024/01/24 05:32:57;;;;;;;22.10;5.00;;;;;;;;;;5002287;28;20536;-77
2024/01/24 05:35:24;;;;;;;15.80;4.77;;;;;;;;;;5004739;28;20453;-77
2024/01/24 05:37:51;;;;;;;14.83;4.27;;;;;;;;;;5000817;28;20494;-77
2024/01/24 05:40:18;;;;;;;19.57;3.80;;;;;;;;;;5002554;28;20563;-77
2024/01/24 05:42:44;;;;;;;15.07;4.30;;;;;;;;;;5000833;28;20438;-77
2024/01/24 05:45:11;;;;;;;20.07;5.33;;;;;;;;;;5003464;28;20460;-80
2024/01/24 05:47:38;;;;;;;17.87;5.00;;;;;;;;;;5003102;28;20466;-77
2024/01/24 05:50:10;;;;;;;13.87;4.90;;;;;;;;;;5003051;28;20537;-78
2024/01/24 05:52:38;;;;;;;16.17;4.60;;;;;;;;;;5003217;28;20445;-77
2024/01/24 05:55:05;;;;;;;16.43;4.40;;;;;;;;;;5001869;28;20450;-76
2024/01/24 05:57:31;;;;;;;16.60;4.80;;;;;;;;;;5001626;28;20584;-77
2024/01/24 05:59:59;;;;;;;15.90;4.80;;;;;;;;;;5006295;28;20534;-77
2024/01/24 06:02:26;;;;;;;12.73;4.40;;;;;;;;;;5001590;28;20476;-81
2024/01/24 06:04:52;;;;;;;12.57;4.27;;;;;;;;;;4998687;28;20481;-77
2024/01/24 06:07:20;;;;;;;17.97;4.57;;;;;;;;;;5000835;28;20897;-78
2024/01/24 06:09:48;;;;;;;19.33;5.30;;;;;;;;;;5002228;28;20485;-78
2024/01/24 06:12:14;;;;;;;18.13;6.03;;;;;;;;;;5003909;28;20484;-77
2024/01/24 06:14:41;;;;;;;22.77;6.27;;;;;;;;;;5002427;28;20945;-78
2024/01/24 06:17:07;;;;;;;17.97;4.73;;;;;;;;;;5003042;28;20486;-77
2024/01/24 06:19:34;;;;;;;19.80;5.60;;;;;;;;;;5002275;28;20477;-78
2024/01/24 06:22:00;;;;;;;19.37;5.03;;;;;;;;;;5003819;28;20472;-77
2024/01/24 06:24:28;;;;;;;13.77;4.70;;;;;;;;;;5002977;28;21161;-77
2024/01/24 06:26:54;;;;;;;18.90;7.23;;;;;;;;;;5003274;28;20820;-77
2024/01/24 06:29:21;;;;;;;20.87;6.97;;;;;;;;;;5001073;28;20524;-77
2024/01/24 06:31:47;;;;;;;16.03;4.73;;;;;;;;;;5002882;28;20831;-77
2024/01/24 06:34:14;;;;;;;18.87;5.03;;;;;;;;;;5000510;28;20461;-77
2024/01/24 06:36:40;;;;;;;20.53;5.37;;;;;;;;;;5002184;28;20482;-78
2024/01/24 06:39:07;;;;;;;29.33;5.70;;;;;;;;;;5000850;28;20473;-78
2024/01/24 06:41:35;;;;;;;26.57;5.47;;;;;;;;;;5005179;28;21075;-77
2024/01/24 06:44:05;;;;;;;25.87;6.63;;;;;;;;;;5002255;28;20462;-81
2024/01/24 06:46:31;;;;;;;30.60;5.87;;;;;;;;;;5003857;28;20942;-79
2024/01/24 06:48:57;;;;;;;22.00;6.00;;;;;;;;;;4998383;28;20482;-78
2024/01/24 06:51:24;;;;;;;20.97;6.57;;;;;;;;;;5003256;28;20485;-78
2024/01/24 06:53:52;;;;;;;16.10;4.47;;;;;;;;;;5000435;28;20473;-77
2024/01/24 06:56:18;;;;;;;23.67;5.70;;;;;;;;;;5001979;28;20474;-77
2024/01/24 06:58:46;;;;;;;30.77;7.73;;;;;;;;;;5003043;28;20473;-78
2024/01/24 07:01:13;;;;;;;24.10;5.27;;;;;;;;;;5004526;28;20549;-78
2024/01/24 07:03:40;;;;;;;23.20;6.33;;;;;;;;;;5002991;28;20553;-77
2024/01/24 07:06:07;;;;;;;32.63;8.33;;;;;;;;;;5004538;28;20924;-77
2024/01/24 07:08:34;;;;;;;23.77;7.33;;;;;;;;;;5000257;28;20483;-77
2024/01/24 07:11:01;;;;;;;32.07;7.53;;;;;;;;;;5007390;28;20490;-77
2024/01/24 07:13:28;;;;;;;23.10;5.80;;;;;;;;;;5001725;28;20476;-77
2024/01/24 07:15:55;;;;;;;29.20;7.23;;;;;;;;;;5002781;28;20532;-77
2024/01/24 07:18:22;;;;;;;28.13;7.10;;;;;;;;;;5006138;28;20502;-77
2024/01/24 07:20:48;;;;;;;36.17;8.70;;;;;;;;;;5008471;28;20885;-77
2024/01/24 07:23:16;;;;;;;29.10;7.07;;;;;;;;;;5007040;28;20508;-78
2024/01/24 07:25:42;;;;;;;28.03;7.57;;;;;;;;;;5005252;28;20450;-78
2024/01/24 07:28:09;;;;;;;29.37;6.47;;;;;;;;;;5005461;28;20477;-79
2024/01/24 07:30:35;;;;;;;33.10;8.10;;;;;;;;;;5005789;28;20464;-83
2024/01/24 07:33:05;;;;;;;33.43;7.00;;;;;;;;;;5005789;28;20549;-79
2024/01/24 07:35:33;;;;;;;26.40;8.07;;;;;;;;;;5007688;28;20551;-79
2024/01/24 07:37:59;;;;;;;29.27;7.73;;;;;;;;;;5003520;28;20477;-77
2024/01/24 07:40:27;;;;;;;23.33;7.03;;;;;;;;;;5006525;28;20449;-77
2024/01/24 07:42:54;;;;;;;20.30;6.20;;;;;;;;;;5005698;28;20927;-77
2024/01/24 07:45:20;;;;;;;26.37;7.20;;;;;;;;;;5004885;28;20483;-77
2024/01/24 07:47:49;;;;;;;28.70;7.27;;;;;;;;;;5006129;28;20465;-77
2024/01/24 07:50:17;;;;;;;22.63;6.13;;;;;;;;;;5003187;28;20449;-77
2024/01/24 07:52:44;;;;;;;14.47;5.93;;;;;;;;;;5004809;28;20568;-77
2024/01/24 07:55:10;;;;;;;36.13;7.80;;;;;;;;;;5005547;28;20833;-78
2024/01/24 07:57:37;;;;;;;18.27;6.20;;;;;;;;;;5006300;28;21004;-77
2024/01/24 08:00:05;;;;;;;32.13;7.70;;;;;;;;;;5004304;28;20846;-81
2024/01/24 08:02:31;;;;;;;22.90;5.37;;;;;;;;;;5005098;28;20987;-79
2024/01/24 08:04:58;;;;;;;20.70;8.03;;;;;;;;;;5006954;28;20456;-78
2024/01/24 08:07:26;;;;;;;24.20;5.97;;;;;;;;;;5005627;28;20446;-78
2024/01/24 08:09:53;;;;;;;34.27;7.00;;;;;;;;;;5005278;28;20447;-77
2024/01/24 08:12:19;;;;;;;34.63;8.23;;;;;;;;;;5021310;28;21002;-77
2024/01/24 08:14:47;;;;;;;23.57;7.00;;;;;;;;;;5005175;28;20441;-79
2024/01/24 08:17:15;;;;;;;25.03;6.80;;;;;;;;;;5004872;28;20485;-80
2024/01/24 08:19:41;;;;;;;28.60;8.00;;;;;;;;;;5006141;28;20476;-77
2024/01/24 08:22:08;;;;;;;23.23;6.90;;;;;;;;;;5005513;28;20481;-78
2024/01/24 08:24:36;;;;;;;27.03;7.00;;;;;;;;;;5005477;28;20844;-78
2024/01/24 08:27:02;;;;;;;24.93;6.83;;;;;;;;;;5003518;28;20434;-79
2024/01/24 08:29:29;;;;;;;31.27;7.67;;;;;;;;;;5002758;28;20584;-78
2024/01/24 08:31:55;;;;;;;28.50;6.97;;;;;;;;;;5004142;28;20468;-78
2024/01/24 08:34:22;;;;;;;21.00;5.57;;;;;;;;;;5005114;28;20499;-78
2024/01/24 08:36:48;;;;;;;28.07;8.00;;;;;;;;;;5003873;28;20494;-79
2024/01/24 08:39:15;;;;;;;27.07;7.00;;;;;;;;;;5004326;28;20502;-80
2024/01/24 08:41:44;;;;;;;23.90;6.30;;;;;;;;;;5005057;28;20486;-77
2024/01/24 08:44:10;;;;;;;29.70;7.07;;;;;;;;;;5004756;28;20465;-78
2024/01/24 08:46:37;;;;;;;24.63;7.13;;;;;;;;;;5004723;28;20529;-78
2024/01/24 08:49:03;;;;;;;28.20;6.80;;;;;;;;;;5004508;28;21006;-78
2024/01/24 08:51:31;;;;;;;22.40;6.73;;;;;;;;;;5004436;28;20485;-77
2024/01/24 08:53:58;;;;;;;25.33;7.20;;;;;;;;;;5005656;28;20474;-78
2024/01/24 08:56:25;;;;;;;27.43;5.97;;;;;;;;;;5004734;28;20448;-78
2024/01/24 08:58:52;;;;;;;31.73;7.63;;;;;;;;;;5004141;28;20480;-78
2024/01/24 09:01:19;;;;;;;32.20;7.03;;;;;;;;;;5002787;28;20462;-78
2024/01/24 09:03:46;;;;;;;27.93;5.90;;;;;;;;;;5004170;28;20993;-77
2024/01/24 09:06:13;;;;;;;29.30;7.40;;;;;;;;;;5003468;28;20445;-78
2024/01/24 09:08:41;;;;;;;20.83;7.40;;;;;;;;;;5002053;28;20482;-77
2024/01/24 09:11:07;;;;;;;25.33;6.03;;;;;;;;;;5004271;28;20465;-78
2024/01/24 09:13:34;;;;;;;23.50;6.70;;;;;;;;;;5004657;28;20562;-79
2024/01/24 09:16:01;;;;;;;25.83;6.10;;;;;;;;;;5018059;28;20996;-79
2024/01/24 09:18:28;;;;;;;24.13;6.10;;;;;;;;;;5003355;28;20507;-77
2024/01/24 09:20:54;;;;;;;22.73;6.73;;;;;;;;;;5003160;28;21013;-77
2024/01/24 09:23:22;;;;;;;19.13;6.20;;;;;;;;;;5002903;28;20473;-77
2024/01/24 09:25:48;;;;;;;23.90;7.27;;;;;;;;;;5003670;28;20451;-79
2024/01/24 09:28:15;;;;;;;27.63;6.93;;;;;;;;;;5002511;28;20478;-77
2024/01/24 09:30:41;;;;;;;19.23;6.03;;;;;;;;;;5003636;28;20476;-78
2024/01/24 09:33:09;;;;;;;22.07;5.57;;;;;;;;;;5018775;28;20537;-78
2024/01/24 09:35:36;;;;;;;26.20;6.20;;;;;;;;;;5004131;28;20450;-81
2024/01/24 09:38:02;;;;;;;30.67;6.00;;;;;;;;;;5003857;28;21048;-78
2024/01/24 09:40:28;;;;;;;22.30;6.30;;;;;;;;;;5003871;28;20462;-78
2024/01/24 09:42:55;;;;;;;20.73;6.70;;;;;;;;;;5003278;28;20474;-78
2024/01/24 09:45:23;;;;;;;23.93;6.60;;;;;;;;;;5002818;28;20546;-78
2024/01/24 09:47:50;;;;;;;20.60;5.93;;;;;;;;;;5004223;28;20481;-78
2024/01/24 09:50:19;;;;;;;18.57;5.00;;;;;;;;;;5002797;28;20794;-78
2024/01/24 09:52:46;;;;;;;24.47;5.83;;;;;;;;;;5003103;28;20476;-78
2024/01/24 09:55:13;;;;;;;28.40;6.90;;;;;;;;;;5003342;28;20525;-79
2024/01/24 09:57:40;;;;;;;24.83;7.70;;;;;;;;;;5002015;28;20482;-79
2024/01/24 10:00:09;;;;;;;24.30;6.10;;;;;;;;;;5002213;28;20455;-78
2024/01/24 10:02:35;;;;;;;26.13;6.30;;;;;;;;;;5002433;28;20986;-77
2024/01/24 10:05:04;;;;;;;23.57;6.80;;;;;;;;;;5001103;28;20442;-77
2024/01/24 10:07:32;;;;;;;18.50;5.47;;;;;;;;;;5001588;28;20466;-77
2024/01/24 10:10:08;;;;;;;27.63;7.20;;;;;;;;;;5002224;28;20446;-77
2024/01/24 10:12:35;;;;;;;27.50;6.17;;;;;;;;;;5002910;28;20466;-78
2024/01/24 10:15:02;;;;;;;20.03;5.80;;;;;;;;;;5001229;28;20533;-77
2024/01/24 10:17:29;;;;;;;26.33;6.83;;;;;;;;;;5001301;28;20520;-79
2024/01/24 10:19:55;;;;;;;30.20;7.30;;;;;;;;;;5000048;28;20818;-78
2024/01/24 10:22:22;;;;;;;32.30;7.50;;;;;;;;;;5002314;28;20485;-79
2024/01/24 10:24:50;;;;;;;24.33;6.50;;;;;;;;;;5002321;28;20446;-78
2024/01/24 10:27:17;;;;;;;30.47;8.17;;;;;;;;;;5001172;28;20496;-80
2024/01/24 10:29:43;;;;;;;30.67;6.77;;;;;;;;;;5001665;28;20442;-78
2024/01/24 10:32:10;;;;;;;20.30;7.20;;;;;;;;;;5001965;28;21016;-79
2024/01/24 10:34:38;;;;;;;35.03;7.00;;;;;;;;;;5000603;28;20517;-78
2024/01/24 10:37:06;;;;;;;18.33;7.00;;;;;;;;;;5002383;28;20522;-79
2024/01/24 10:39:35;;;;;;;34.83;6.70;;;;;;;;;;5001941;28;20470;-82
2024/01/24 10:42:04;;;;;;;30.63;8.30;;;;;;;;;;5002984;28;21017;-79
2024/01/24 10:44:33;;;;;;;24.27;6.03;;;;;;;;;;5000859;28;20476;-78
2024/01/24 10:46:59;;;;;;;29.90;7.93;;;;;;;;;;5002534;28;20439;-79
2024/01/24 10:49:26;;;;;;;22.77;5.73;;;;;;;;;;4999917;28;20480;-81
2024/01/24 10:51:53;;;;;;;26.77;6.63;;;;;;;;;;5002395;28;21033;-77
2024/01/24 10:54:20;;;;;;;20.10;6.33;;;;;;;;;;5002737;28;21020;-78
2024/01/24 10:56:49;;;;;;;29.93;7.10;;;;;;;;;;5002529;28;20496;-77
2024/01/24 10:59:17;;;;;;;23.90;6.53;;;;;;;;;;5000006;28;20475;-77
2024/01/24 11:01:44;;;;;;;29.43;6.17;;;;;;;;;;5002536;28;20564;-78
2024/01/24 11:04:11;;;;;;;28.67;7.07;;;;;;;;;;5000762;28;20979;-77
2024/01/24 11:06:42;;;;;;;28.87;8.10;;;;;;;;;;5003060;28;20463;-77
2024/01/24 11:09:16;;;;;;;33.17;5.97;;;;;;;;;;5002052;28;20833;-79
2024/01/24 11:11:43;;;;;;;19.20;5.13;;;;;;;;;;5002199;28;20466;-77
2024/01/24 11:14:09;;;;;;;26.43;6.53;;;;;;;;;;5002028;28;20474;-77
2024/01/24 11:16:39;;;;;;;21.50;5.90;;;;;;;;;;5000530;28;20458;-79
2024/01/24 11:19:22;;;;;;;23.47;6.63;;;;;;;;;;5001698;28;20497;-79
2024/01/24 11:21:48;;;;;;;21.60;6.13;;;;;;;;;;5000977;28;20545;-79
2024/01/24 11:24:47;;;;;;;25.97;6.30;;;;;;;;;;5001331;28;20466;-78
2024/01/24 11:27:25;;;;;;;21.20;6.43;;;;;;;;;;4999236;28;20445;-78
2024/01/24 11:29:51;;;;;;;31.00;8.30;;;;;;;;;;5002220;28;20889;-81
2024/01/24 11:32:48;;;;;;;26.40;6.87;;;;;;;;;;5000258;28;20476;-79
2024/01/24 11:35:27;;;;;;;19.37;6.23;;;;;;;;;;5001347;28;20477;-78
2024/01/24 11:37:56;;;;;;;27.17;6.60;;;;;;;;;;4999946;28;20481;-78
2024/01/24 11:40:23;;;;;;;25.67;6.20;;;;;;;;;;5000416;28;20438;-78
2024/01/24 11:42:56;;;;;;;17.20;4.90;;;;;;;;;;4999305;28;20473;-79
2024/01/24 11:45:24;;;;;;;25.93;5.83;;;;;;;;;;5000865;28;20532;-77
2024/01/24 11:47:53;;;;;;;20.87;5.43;;;;;;;;;;4999387;28;20488;-78
2024/01/24 11:50:19;;;;;;;31.30;7.00;;;;;;;;;;5000837;28;20449;-79
2024/01/24 11:52:46;;;;;;;25.97;7.53;;;;;;;;;;5001864;28;20461;-79
2024/01/24 11:55:12;;;;;;;21.30;5.13;;;;;;;;;;5001092;28;20453;-77
2024/01/24 11:57:40;;;;;;;21.03;5.47;;;;;;;;;;5000932;28;20557;-78
2024/01/24 12:00:09;;;;;;;22.93;6.83;;;;;;;;;;5000714;28;20549;-79
2024/01/24 12:02:36;;;;;;;29.20;5.90;;;;;;;;;;5002377;28;20538;-78
2024/01/24 12:05:04;;;;;;;20.23;5.80;;;;;;;;;;5004265;28;20443;-77
2024/01/24 12:07:32;;;;;;;47.33;7.60;;;;;;;;;;5005886;28;20993;-79
2024/01/24 12:09:59;;;;;;;31.03;5.90;;;;;;;;;;5005955;28;20441;-80
2024/01/24 12:12:27;;;;;;;27.17;7.33;;;;;;;;;;5002628;28;20460;-78
2024/01/24 12:14:55;;;;;;;25.80;6.80;;;;;;;;;;5004846;28;20541;-78
2024/01/24 12:17:21;;;;;;;26.77;6.17;;;;;;;;;;5003359;28;20936;-78
2024/01/24 12:19:48;;;;;;;25.77;6.03;;;;;;;;;;5005776;28;20495;-77
2024/01/24 12:22:16;;;;;;;32.67;7.10;;;;;;;;;;5003521;28;20568;-79
2024/01/24 12:24:44;;;;;;;28.17;6.07;;;;;;;;;;5003834;28;20836;-78
2024/01/24 12:27:10;;;;;;;19.40;4.70;;;;;;;;;;5003493;28;21157;-79
2024/01/24 12:29:37;;;;;;;19.93;5.00;;;;;;;;;;5002464;28;20459;-77
2024/01/24 12:32:05;;;;;;;26.40;7.83;;;;;;;;;;5004711;28;20470;-78
2024/01/24 12:34:32;;;;;;;23.90;5.60;;;;;;;;;;5002727;28;20489;-77
2024/01/24 12:37:00;;;;;;;24.53;6.07;;;;;;;;;;5003135;28;20552;-78
2024/01/24 12:39:28;;;;;;;23.63;6.60;;;;;;;;;;5002304;28;21029;-78
2024/01/24 12:41:54;;;;;;;21.70;5.90;;;;;;;;;;5002530;28;20465;-78
2024/01/24 12:44:21;;;;;;;26.87;6.20;;;;;;;;;;5004320;28;20477;-77
2024/01/24 12:46:53;;;;;;;30.03;6.17;;;;;;;;;;5003804;28;20476;-79
2024/01/24 12:49:20;;;;;;;25.63;8.07;;;;;;;;;;5002887;28;20465;-77
2024/01/24 12:51:47;;;;;;;27.50;6.40;;;;;;;;;;5002132;28;20478;-78
2024/01/24 12:54:14;;;;;;;27.83;7.63;;;;;;;;;;5001946;28;21007;-78
2024/01/24 12:56:42;;;;;;;25.30;6.90;;;;;;;;;;5003279;28;20524;-77
2024/01/24 12:59:08;;;;;;;23.27;5.83;;;;;;;;;;5001391;28;20568;-78
2024/01/24 13:01:34;;;;;;;25.00;6.87;;;;;;;;;;5003464;28;20496;-78
2024/01/24 13:04:01;;;;;;;25.30;5.63;;;;;;;;;;5002045;28;20481;-79
2024/01/24 13:06:28;;;;;;;23.67;6.40;;;;;;;;;;5003257;28;20917;-78
2024/01/24 13:08:54;;;;;;;22.33;6.60;;;;;;;;;;5003487;28;20851;-78
2024/01/24 13:11:21;;;;;;;24.17;5.93;;;;;;;;;;5001192;28;21220;-78
2024/01/24 13:13:50;;;;;;;31.87;7.23;;;;;;;;;;5002311;28;20504;-78
2024/01/24 13:16:18;;;;;;;22.53;6.47;;;;;;;;;;5004101;28;20441;-78
2024/01/24 13:18:44;;;;;;;26.93;5.97;;;;;;;;;;5003736;28;20485;-77
2024/01/24 13:21:11;;;;;;;27.77;7.40;;;;;;;;;;5003617;28;20458;-79
2024/01/24 13:23:38;;;;;;;19.10;7.50;;;;;;;;;;5002081;28;20580;-77
2024/01/24 13:26:04;;;;;;;31.20;6.80;;;;;;;;;;5001788;28;20538;-78
2024/01/24 13:28:31;;;;;;;25.03;7.50;;;;;;;;;;5000961;28;20495;-78
2024/01/24 13:30:59;;;;;;;23.83;6.40;;;;;;;;;;5001845;28;20459;-78
2024/01/24 13:33:25;;;;;;;30.37;7.47;;;;;;;;;;5005216;28;20474;-78
2024/01/24 13:35:51;;;;;;;28.97;6.13;;;;;;;;;;5001262;28;20553;-77
2024/01/24 13:38:18;;;;;;;30.23;6.90;;;;;;;;;;5002698;28;20478;-78
2024/01/24 13:40:46;;;;;;;27.90;6.40;;;;;;;;;;5004204;28;21036;-81
2024/01/24 13:43:12;;;;;;;23.57;7.17;;;;;;;;;;5000774;28;20471;-78
2024/01/24 13:45:39;;;;;;;22.20;6.50;;;;;;;;;;5003036;28;20468;-78
2024/01/24 13:48:07;;;;;;;36.50;8.20;;;;;;;;;;5001879;28;20492;-78
2024/01/24 13:50:35;;;;;;;31.07;8.30;;;;;;;;;;5001596;28;20565;-77
2024/01/24 13:53:02;;;;;;;26.67;7.20;;;;;;;;;;5003058;28;20485;-77
2024/01/24 13:55:28;;;;;;;25.00;7.13;;;;;;;;;;5003513;28;20469;-78
2024/01/24 13:57:59;;;;;;;28.40;6.47;;;;;;;;;;4999955;28;20465;-78
2024/01/24 14:00:25;;;;;;;24.67;5.37;;;;;;;;;;5001944;28;20461;-78
2024/01/24 14:02:52;;;;;;;27.27;7.20;;;;;;;;;;5001855;28;20505;-78
2024/01/24 14:05:20;;;;;;;31.53;6.90;;;;;;;;;;5002110;28;20461;-79
2024/01/24 14:07:46;;;;;;;25.60;7.80;;;;;;;;;;5003822;28;20544;-77
2024/01/24 14:10:14;;;;;;;27.20;7.17;;;;;;;;;;5001308;28;20476;-79
2024/01/24 14:12:41;;;;;;;28.00;7.53;;;;;;;;;;5001128;28;20462;-78
2024/01/24 14:15:08;;;;;;;27.13;6.60;;;;;;;;;;5003956;28;20448;-78
2024/01/24 14:17:34;;;;;;;34.57;7.03;;;;;;;;;;5002358;28;20548;-80
2024/01/24 14:20:01;;;;;;;29.60;7.33;;;;;;;;;;5003104;28;20493;-78
2024/01/24 14:22:29;;;;;;;23.77;7.20;;;;;;;;;;5002659;28;20476;-79
2024/01/24 14:24:56;;;;;;;24.80;7.67;;;;;;;;;;5003445;28;20462;-78
2024/01/24 14:27:26;;;;;;;21.30;6.13;;;;;;;;;;5001928;28;20442;-78
2024/01/24 14:29:52;;;;;;;25.70;6.20;;;;;;;;;;5002784;28;20441;-78
2024/01/24 14:32:20;;;;;;;29.87;8.67;;;;;;;;;;5003050;28;20519;-78